27°F
Crown Heights Area, Poughkeepsie, NY, USA
UpdatedJan-18-2018 05:05 
 

Nearby METAR Reports

 

KPOU - Poughkeepsie, New York, USA
Distance from station: ENE 2mi, 4km
Updated: Thu, 18-Jan-2018 4:53am EST
Clear
Clear
 Wind from calm
Wind: Calm
Temperature: 1°F , -17°C
Dew Point: -2°F , -19°C
Humidity: 85%
Barometer: 30.05 inHg , 1017.6 hPa
Clouds: Clear
Visibility: 8 miles , 13 km
2018/01/18 09:53 KPOU 180953Z 00000KT 8SM CLR M17/M19 A3005 RMK AO2 SLP177 T11721194
KSWF - Newburgh/Stewart, New York, USA
Distance from station: SW 12mi, 19km
Updated: Thu, 18-Jan-2018 4:45am EST
Clear
Clear
 Wind from calm
Wind: Calm
Temperature: 7°F , -14°C
Dew Point: 5°F , -15°C
Humidity: 92%
Barometer: 30.04 inHg , 1017.3 hPa
Clouds: Clear
Visibility: 10 miles , 16 km
2018/01/18 09:45 KSWF 180945Z 00000KT 10SM SKC M14/M15 A3004
 
KMGJ - Montgomery, New York, USA
Distance from station: WSW 19mi, 31km
Updated: Thu, 18-Jan-2018 4:54am EST
Clear
Clear
 Wind from W
Wind: W 5 mph , 7 km/h
Temperature: 7°F , -14°C
Wind Chill: -2°F , -19°C
Dew Point: 3°F , -16°C
Humidity: 85%
Barometer: 30.02 inHg , 1016.6 hPa
Clouds: Clear
Visibility: 10 miles , 16 km
2018/01/18 09:54 KMGJ 180954Z AUTO 26004KT 10SM CLR M14/M16 A3002 RMK AO2 SLP172 T11391161
KDXR - Danbury, Connecticut, USA
Distance from station: SE 29mi, 46km
Updated: Thu, 18-Jan-2018 4:53am EST
Clear
Clear
 Wind from calm
Wind: Calm
Temperature: 10°F , -12°C
Dew Point: 7°F , -14°C
Humidity: 85%
Barometer: 30.02 inHg , 1016.6 hPa
Clouds: Clear
Visibility: 8 miles , 13 km
2018/01/18 09:53 KDXR 180953Z AUTO 00000KT 8SM CLR M12/M14 A3002 RMK AO2 SLP171 T11171139 $
 
KHPN - White Plains, New York, USA
Distance from station: SSE 40mi, 64km
Updated: Thu, 18-Jan-2018 4:56am EST
Clear
Clear
 Wind from NW
Wind: NW 8 mph , 13 km/h
Temperature: 16°F , -9°C
Wind Chill: 5°F , -15°C
Dew Point: 9°F , -13°C
Humidity: 73%
Barometer: 30.00 inHg , 1015.9 hPa
Clouds: Clear
Visibility: 10 miles , 16 km
2018/01/18 09:56 KHPN 180956Z 31007KT 10SM CLR M09/M13 A3000 RMK AO2 SLP170 T10891133
KOXC - Oxford/Waterbury, Connecticut, USA
Distance from station: ESE 42mi, 68km
Updated: Thu, 18-Jan-2018 4:51am EST
Clear
Clear
 Wind from NNW
Wind: NNW 5 mph , 7 km/h
Temperature: 10°F , -12°C
Wind Chill: 1°F , -17°C
Dew Point: 7°F , -14°C
Humidity: 85%
Barometer: 29.98 inHg , 1015.2 hPa
Clouds: Clear
Visibility: 10 miles , 16 km
2018/01/18 09:51 KOXC 180951Z AUTO 34004KT 10SM CLR M12/M14 A2998 RMK AO2 SLP178 T11171139 FZRANO
 
KMSV - Monticello, New York, USA
Distance from station: W 45mi, 72km
Updated: Thu, 18-Jan-2018 4:56am EST
Clear
Clear
 Wind from WNW
Wind: WNW 8 mph , 13 km/h
Temperature: 9°F , -13°C
Wind Chill: -3°F , -19°C
Dew Point: 3°F , -16°C
Humidity: 78%
Barometer: 30.00 inHg , 1015.9 hPa
Clouds: Clear
Visibility: 10 miles , 16 km
2018/01/18 09:56 KMSV 180956Z AUTO 30007KT 10SM CLR M13/M16 A3000 RMK AO2 SLP186 T11331156 FZRANO
KFWN - Sussex, New Jersey, USA
Distance from station: SW 47mi, 75km
Updated: Thu, 18-Jan-2018 4:53am EST
Clear
Clear
 Wind from calm
Wind: Calm
Temperature: -2°F , -19°C
Dew Point: -6°F , -21°C
Humidity: 84%
Barometer: 30.02 inHg , 1016.6 hPa
Clouds: Clear
Visibility: 9 miles , 14 km
2018/01/18 09:53 KFWN 180953Z AUTO 00000KT 9SM CLR M19/M21 A3002 RMK AO2 SLP174 T11941211